sensor_id;sensor_type;location;lat;lon;timestamp;P1;durP1;ratioP1;P2;durP2;ratioP2
21677;SDS011;11000;50.360;7.582;2023-09-19T00:02:01;2.97;;;2.00;;
21677;SDS011;11000;50.360;7.582;2023-09-19T00:04:24;5.20;;;2.10;;
21677;SDS011;11000;50.360;7.582;2023-09-19T00:06:48;2.37;;;1.77;;
21677;SDS011;11000;50.360;7.582;2023-09-19T00:09:10;3.03;;;1.50;;
21677;SDS011;11000;50.360;7.582;2023-09-19T00:11:30;4.07;;;1.77;;
21677;SDS011;11000;50.360;7.582;2023-09-19T00:13:51;2.33;;;1.67;;
21677;SDS011;11000;50.360;7.582;2023-09-19T00:16:11;2.47;;;1.80;;
21677;SDS011;11000;50.360;7.582;2023-09-19T00:18:32;2.43;;;1.90;;
21677;SDS011;11000;50.360;7.582;2023-09-19T00:20:58;2.47;;;1.87;;
21677;SDS011;11000;50.360;7.582;2023-09-19T00:23:18;3.27;;;1.73;;
21677;SDS011;11000;50.360;7.582;2023-09-19T00:25:39;1.80;;;1.70;;
21677;SDS011;11000;50.360;7.582;2023-09-19T00:28:00;2.60;;;1.60;;
21677;SDS011;11000;50.360;7.582;2023-09-19T00:30:21;3.17;;;1.87;;
21677;SDS011;11000;50.360;7.582;2023-09-19T00:32:44;4.40;;;1.87;;
21677;SDS011;11000;50.360;7.582;2023-09-19T00:35:07;3.07;;;2.03;;
21677;SDS011;11000;50.360;7.582;2023-09-19T00:37:30;8.37;;;2.03;;
21677;SDS011;11000;50.360;7.582;2023-09-19T00:39:51;5.30;;;1.80;;
21677;SDS011;11000;50.360;7.582;2023-09-19T00:42:17;3.23;;;1.80;;
21677;SDS011;11000;50.360;7.582;2023-09-19T00:44:41;3.13;;;1.70;;
21677;SDS011;11000;50.360;7.582;2023-09-19T00:47:01;3.70;;;1.77;;
21677;SDS011;11000;50.360;7.582;2023-09-19T00:49:22;4.40;;;2.13;;
21677;SDS011;11000;50.360;7.582;2023-09-19T00:51:43;5.00;;;2.20;;
21677;SDS011;11000;50.360;7.582;2023-09-19T00:54:07;3.17;;;1.90;;
21677;SDS011;11000;50.360;7.582;2023-09-19T00:56:28;2.90;;;2.00;;
21677;SDS011;11000;50.360;7.582;2023-09-19T00:58:48;2.43;;;1.93;;
21677;SDS011;11000;50.360;7.582;2023-09-19T01:01:09;5.60;;;2.27;;
21677;SDS011;11000;50.360;7.582;2023-09-19T01:03:31;3.70;;;1.93;;
21677;SDS011;11000;50.360;7.582;2023-09-19T01:05:53;4.57;;;1.87;;
21677;SDS011;11000;50.360;7.582;2023-09-19T01:08:14;2.97;;;2.10;;
21677;SDS011;11000;50.360;7.582;2023-09-19T01:10:34;3.63;;;1.93;;
21677;SDS011;11000;50.360;7.582;2023-09-19T01:13:02;4.63;;;1.80;;
21677;SDS011;11000;50.360;7.582;2023-09-19T01:15:44;3.10;;;1.90;;
21677;SDS011;11000;50.360;7.582;2023-09-19T01:23:50;2.80;;;1.73;;
21677;SDS011;11000;50.360;7.582;2023-09-19T01:26:18;3.20;;;1.70;;
21677;SDS011;11000;50.360;7.582;2023-09-19T01:29:12;4.07;;;1.70;;
21677;SDS011;11000;50.360;7.582;2023-09-19T01:31:53;4.47;;;1.80;;
21677;SDS011;11000;50.360;7.582;2023-09-19T01:34:14;2.37;;;1.50;;
21677;SDS011;11000;50.360;7.582;2023-09-19T01:36:35;2.50;;;1.50;;
21677;SDS011;11000;50.360;7.582;2023-09-19T01:38:57;5.63;;;1.67;;
21677;SDS011;11000;50.360;7.582;2023-09-19T01:41:40;4.23;;;1.83;;
21677;SDS011;11000;50.360;7.582;2023-09-19T01:44:40;5.30;;;1.77;;
21677;SDS011;11000;50.360;7.582;2023-09-19T01:47:13;3.00;;;1.57;;
21677;SDS011;11000;50.360;7.582;2023-09-19T01:49:50;2.17;;;1.50;;
21677;SDS011;11000;50.360;7.582;2023-09-19T01:52:17;3.37;;;1.50;;
21677;SDS011;11000;50.360;7.582;2023-09-19T01:54:41;4.40;;;1.73;;
21677;SDS011;11000;50.360;7.582;2023-09-19T01:57:17;3.40;;;1.40;;
21677;SDS011;11000;50.360;7.582;2023-09-19T01:59:52;3.53;;;1.90;;
21677;SDS011;11000;50.360;7.582;2023-09-19T02:02:20;4.00;;;1.73;;
21677;SDS011;11000;50.360;7.582;2023-09-19T02:04:42;2.07;;;1.80;;
21677;SDS011;11000;50.360;7.582;2023-09-19T02:07:03;2.10;;;1.30;;
21677;SDS011;11000;50.360;7.582;2023-09-19T02:09:25;2.70;;;1.50;;
21677;SDS011;11000;50.360;7.582;2023-09-19T02:11:46;2.23;;;1.53;;
21677;SDS011;11000;50.360;7.582;2023-09-19T02:14:06;2.07;;;1.70;;
21677;SDS011;11000;50.360;7.582;2023-09-19T02:16:28;6.40;;;1.53;;
21677;SDS011;11000;50.360;7.582;2023-09-19T02:18:49;2.93;;;1.70;;
21677;SDS011;11000;50.360;7.582;2023-09-19T02:21:09;3.53;;;1.70;;
21677;SDS011;11000;50.360;7.582;2023-09-19T02:23:32;2.10;;;1.60;;
21677;SDS011;11000;50.360;7.582;2023-09-19T02:25:53;2.90;;;1.50;;
21677;SDS011;11000;50.360;7.582;2023-09-19T02:28:14;2.23;;;1.77;;
21677;SDS011;11000;50.360;7.582;2023-09-19T02:30:34;5.87;;;1.80;;
21677;SDS011;11000;50.360;7.582;2023-09-19T02:32:56;4.97;;;1.57;;
21677;SDS011;11000;50.360;7.582;2023-09-19T02:35:17;4.53;;;1.63;;
21677;SDS011;11000;50.360;7.582;2023-09-19T02:37:39;3.30;;;1.57;;
21677;SDS011;11000;50.360;7.582;2023-09-19T02:40:00;6.40;;;1.50;;
21677;SDS011;11000;50.360;7.582;2023-09-19T02:42:20;2.80;;;1.40;;
21677;SDS011;11000;50.360;7.582;2023-09-19T02:44:41;5.00;;;1.73;;
21677;SDS011;11000;50.360;7.582;2023-09-19T02:47:01;3.03;;;1.30;;
21677;SDS011;11000;50.360;7.582;2023-09-19T02:49:22;5.20;;;1.50;;
21677;SDS011;11000;50.360;7.582;2023-09-19T02:51:43;3.13;;;1.43;;
21677;SDS011;11000;50.360;7.582;2023-09-19T02:54:05;6.80;;;1.50;;
21677;SDS011;11000;50.360;7.582;2023-09-19T02:56:26;2.23;;;1.20;;
21677;SDS011;11000;50.360;7.582;2023-09-19T02:58:47;3.07;;;1.50;;
21677;SDS011;11000;50.360;7.582;2023-09-19T03:01:09;3.80;;;1.70;;
21677;SDS011;11000;50.360;7.582;2023-09-19T03:03:31;5.17;;;1.70;;
21677;SDS011;11000;50.360;7.582;2023-09-19T03:05:51;7.53;;;1.67;;
21677;SDS011;11000;50.360;7.582;2023-09-19T03:08:14;3.33;;;1.63;;
21677;SDS011;11000;50.360;7.582;2023-09-19T03:10:37;3.73;;;1.60;;
21677;SDS011;11000;50.360;7.582;2023-09-19T03:12:58;4.57;;;1.73;;
21677;SDS011;11000;50.360;7.582;2023-09-19T03:15:20;6.17;;;2.13;;
21677;SDS011;11000;50.360;7.582;2023-09-19T03:17:45;3.73;;;1.60;;
21677;SDS011;11000;50.360;7.582;2023-09-19T03:20:07;2.80;;;1.50;;
21677;SDS011;11000;50.360;7.582;2023-09-19T03:22:28;3.10;;;1.60;;
21677;SDS011;11000;50.360;7.582;2023-09-19T03:24:49;4.13;;;1.40;;
21677;SDS011;11000;50.360;7.582;2023-09-19T03:27:10;3.93;;;1.50;;
21677;SDS011;11000;50.360;7.582;2023-09-19T03:29:30;4.37;;;1.30;;
21677;SDS011;11000;50.360;7.582;2023-09-19T03:31:51;3.80;;;1.40;;
21677;SDS011;11000;50.360;7.582;2023-09-19T03:34:11;4.73;;;1.67;;
21677;SDS011;11000;50.360;7.582;2023-09-19T03:36:32;5.13;;;1.60;;
21677;SDS011;11000;50.360;7.582;2023-09-19T03:38:52;6.30;;;1.23;;
21677;SDS011;11000;50.360;7.582;2023-09-19T03:41:13;2.10;;;1.50;;
21677;SDS011;11000;50.360;7.582;2023-09-19T03:43:36;5.40;;;1.90;;
21677;SDS011;11000;50.360;7.582;2023-09-19T03:46:00;4.30;;;1.70;;
21677;SDS011;11000;50.360;7.582;2023-09-19T03:48:23;2.80;;;1.43;;
21677;SDS011;11000;50.360;7.582;2023-09-19T03:50:43;2.43;;;1.57;;
21677;SDS011;11000;50.360;7.582;2023-09-19T03:53:04;3.03;;;1.67;;
21677;SDS011;11000;50.360;7.582;2023-09-19T03:55:26;5.87;;;1.80;;
21677;SDS011;11000;50.360;7.582;2023-09-19T03:57:49;5.93;;;1.73;;
21677;SDS011;11000;50.360;7.582;2023-09-19T04:00:10;6.13;;;1.90;;
21677;SDS011;11000;50.360;7.582;2023-09-19T04:02:32;2.20;;;1.70;;
21677;SDS011;11000;50.360;7.582;2023-09-19T04:04:53;3.87;;;1.60;;
21677;SDS011;11000;50.360;7.582;2023-09-19T04:07:13;4.80;;;2.00;;
21677;SDS011;11000;50.360;7.582;2023-09-19T04:09:34;3.47;;;1.50;;
21677;SDS011;11000;50.360;7.582;2023-09-19T04:11:54;4.13;;;1.70;;
21677;SDS011;11000;50.360;7.582;2023-09-19T04:14:15;4.30;;;1.80;;
21677;SDS011;11000;50.360;7.582;2023-09-19T04:16:35;5.73;;;1.97;;
21677;SDS011;11000;50.360;7.582;2023-09-19T04:18:56;3.33;;;1.90;;
21677;SDS011;11000;50.360;7.582;2023-09-19T04:21:16;2.97;;;1.50;;
21677;SDS011;11000;50.360;7.582;2023-09-19T04:23:37;6.27;;;1.73;;
21677;SDS011;11000;50.360;7.582;2023-09-19T04:25:57;9.80;;;2.00;;
21677;SDS011;11000;50.360;7.582;2023-09-19T04:28:18;9.70;;;1.87;;
21677;SDS011;11000;50.360;7.582;2023-09-19T04:30:39;3.60;;;1.83;;
21677;SDS011;11000;50.360;7.582;2023-09-19T04:33:03;3.97;;;2.13;;
21677;SDS011;11000;50.360;7.582;2023-09-19T04:35:25;5.47;;;1.63;;
21677;SDS011;11000;50.360;7.582;2023-09-19T04:37:46;2.67;;;1.83;;
21677;SDS011;11000;50.360;7.582;2023-09-19T04:40:08;4.37;;;1.60;;
21677;SDS011;11000;50.360;7.582;2023-09-19T04:42:37;8.70;;;2.07;;
21677;SDS011;11000;50.360;7.582;2023-09-19T04:44:58;3.97;;;1.60;;
21677;SDS011;11000;50.360;7.582;2023-09-19T04:47:19;5.27;;;1.87;;
21677;SDS011;11000;50.360;7.582;2023-09-19T04:49:42;3.37;;;1.60;;
21677;SDS011;11000;50.360;7.582;2023-09-19T04:52:02;3.67;;;2.03;;
21677;SDS011;11000;50.360;7.582;2023-09-19T04:54:23;4.50;;;1.70;;
21677;SDS011;11000;50.360;7.582;2023-09-19T04:56:43;2.63;;;1.50;;
21677;SDS011;11000;50.360;7.582;2023-09-19T04:59:04;3.93;;;1.77;;
21677;SDS011;11000;50.360;7.582;2023-09-19T05:01:25;4.33;;;1.67;;
21677;SDS011;11000;50.360;7.582;2023-09-19T05:03:46;9.33;;;1.80;;
21677;SDS011;11000;50.360;7.582;2023-09-19T05:06:12;3.70;;;1.80;;
21677;SDS011;11000;50.360;7.582;2023-09-19T05:08:32;2.77;;;1.73;;
21677;SDS011;11000;50.360;7.582;2023-09-19T05:10:53;7.30;;;2.07;;
21677;SDS011;11000;50.360;7.582;2023-09-19T05:13:15;4.43;;;1.70;;
21677;SDS011;11000;50.360;7.582;2023-09-19T05:15:36;3.67;;;1.53;;
21677;SDS011;11000;50.360;7.582;2023-09-19T05:17:57;5.33;;;1.70;;
21677;SDS011;11000;50.360;7.582;2023-09-19T05:20:18;5.43;;;2.00;;
21677;SDS011;11000;50.360;7.582;2023-09-19T05:22:49;4.60;;;2.13;;
21677;SDS011;11000;50.360;7.582;2023-09-19T05:25:10;9.20;;;2.00;;
21677;SDS011;11000;50.360;7.582;2023-09-19T05:27:31;4.40;;;2.00;;
21677;SDS011;11000;50.360;7.582;2023-09-19T05:29:51;4.03;;;2.00;;
21677;SDS011;11000;50.360;7.582;2023-09-19T05:32:13;4.83;;;1.93;;
21677;SDS011;11000;50.360;7.582;2023-09-19T05:34:33;3.40;;;2.10;;
21677;SDS011;11000;50.360;7.582;2023-09-19T05:36:54;7.60;;;2.03;;
21677;SDS011;11000;50.360;7.582;2023-09-19T05:39:14;4.97;;;1.60;;
21677;SDS011;11000;50.360;7.582;2023-09-19T05:41:35;3.40;;;1.77;;
21677;SDS011;11000;50.360;7.582;2023-09-19T05:44:00;5.07;;;1.73;;
21677;SDS011;11000;50.360;7.582;2023-09-19T05:46:20;4.37;;;1.90;;
21677;SDS011;11000;50.360;7.582;2023-09-19T05:48:41;5.53;;;1.97;;
21677;SDS011;11000;50.360;7.582;2023-09-19T05:51:03;4.67;;;1.83;;
21677;SDS011;11000;50.360;7.582;2023-09-19T05:53:24;3.80;;;1.97;;
21677;SDS011;11000;50.360;7.582;2023-09-19T05:55:45;4.90;;;2.10;;
21677;SDS011;11000;50.360;7.582;2023-09-19T05:58:06;7.20;;;2.10;;
21677;SDS011;11000;50.360;7.582;2023-09-19T06:00:27;4.73;;;2.07;;
21677;SDS011;11000;50.360;7.582;2023-09-19T06:02:56;5.60;;;2.30;;
21677;SDS011;11000;50.360;7.582;2023-09-19T06:05:17;8.80;;;2.03;;
21677;SDS011;11000;50.360;7.582;2023-09-19T06:07:37;3.33;;;1.60;;
21677;SDS011;11000;50.360;7.582;2023-09-19T06:09:58;3.13;;;1.57;;
21677;SDS011;11000;50.360;7.582;2023-09-19T06:12:31;4.23;;;1.73;;
21677;SDS011;11000;50.360;7.582;2023-09-19T06:14:55;8.27;;;2.50;;
21677;SDS011;11000;50.360;7.582;2023-09-19T06:17:15;7.17;;;2.00;;
21677;SDS011;11000;50.360;7.582;2023-09-19T06:19:37;5.30;;;2.20;;
21677;SDS011;11000;50.360;7.582;2023-09-19T06:21:57;4.63;;;2.13;;
21677;SDS011;11000;50.360;7.582;2023-09-19T06:24:19;6.73;;;2.50;;
21677;SDS011;11000;50.360;7.582;2023-09-19T06:26:41;15.10;;;2.50;;
21677;SDS011;11000;50.360;7.582;2023-09-19T06:29:01;7.57;;;2.20;;
21677;SDS011;11000;50.360;7.582;2023-09-19T06:31:27;7.60;;;2.00;;
21677;SDS011;11000;50.360;7.582;2023-09-19T06:33:47;8.57;;;2.33;;
21677;SDS011;11000;50.360;7.582;2023-09-19T06:36:08;7.47;;;2.00;;
21677;SDS011;11000;50.360;7.582;2023-09-19T06:38:29;3.97;;;1.80;;
21677;SDS011;11000;50.360;7.582;2023-09-19T06:40:49;7.70;;;1.90;;
21677;SDS011;11000;50.360;7.582;2023-09-19T06:43:10;4.50;;;2.03;;
21677;SDS011;11000;50.360;7.582;2023-09-19T06:45:31;4.87;;;1.73;;
21677;SDS011;11000;50.360;7.582;2023-09-19T06:47:52;6.07;;;2.03;;
21677;SDS011;11000;50.360;7.582;2023-09-19T06:50:14;8.00;;;1.63;;
21677;SDS011;11000;50.360;7.582;2023-09-19T06:52:34;5.43;;;2.40;;
21677;SDS011;11000;50.360;7.582;2023-09-19T06:54:55;6.43;;;1.83;;
21677;SDS011;11000;50.360;7.582;2023-09-19T06:57:16;5.07;;;1.50;;
21677;SDS011;11000;50.360;7.582;2023-09-19T06:59:36;6.97;;;1.77;;
21677;SDS011;11000;50.360;7.582;2023-09-19T07:01:57;5.27;;;2.50;;
21677;SDS011;11000;50.360;7.582;2023-09-19T07:04:19;6.57;;;1.90;;
21677;SDS011;11000;50.360;7.582;2023-09-19T07:06:39;7.47;;;1.80;;
21677;SDS011;11000;50.360;7.582;2023-09-19T07:09:00;7.70;;;2.50;;
21677;SDS011;11000;50.360;7.582;2023-09-19T07:11:20;5.77;;;1.90;;
21677;SDS011;11000;50.360;7.582;2023-09-19T07:13:43;6.20;;;1.90;;
21677;SDS011;11000;50.360;7.582;2023-09-19T07:16:04;7.53;;;2.10;;
21677;SDS011;11000;50.360;7.582;2023-09-19T07:18:24;6.90;;;1.73;;
21677;SDS011;11000;50.360;7.582;2023-09-19T07:20:45;4.30;;;1.80;;
21677;SDS011;11000;50.360;7.582;2023-09-19T07:23:09;8.03;;;1.60;;
21677;SDS011;11000;50.360;7.582;2023-09-19T07:25:30;7.70;;;2.03;;
21677;SDS011;11000;50.360;7.582;2023-09-19T07:27:51;14.30;;;2.57;;
21677;SDS011;11000;50.360;7.582;2023-09-19T07:30:11;5.70;;;1.80;;
21677;SDS011;11000;50.360;7.582;2023-09-19T07:32:32;8.87;;;2.13;;
21677;SDS011;11000;50.360;7.582;2023-09-19T07:34:52;6.77;;;2.20;;
21677;SDS011;11000;50.360;7.582;2023-09-19T07:37:15;7.77;;;2.13;;
21677;SDS011;11000;50.360;7.582;2023-09-19T07:39:36;7.10;;;1.90;;
21677;SDS011;11000;50.360;7.582;2023-09-19T07:41:56;8.03;;;2.07;;
21677;SDS011;11000;50.360;7.582;2023-09-19T07:44:18;6.67;;;1.93;;
21677;SDS011;11000;50.360;7.582;2023-09-19T07:46:39;7.93;;;2.20;;
21677;SDS011;11000;50.360;7.582;2023-09-19T07:48:59;6.43;;;1.80;;
21677;SDS011;11000;50.360;7.582;2023-09-19T07:51:20;5.13;;;1.60;;
21677;SDS011;11000;50.360;7.582;2023-09-19T07:53:40;5.17;;;1.50;;
21677;SDS011;11000;50.360;7.582;2023-09-19T07:56:05;9.77;;;1.80;;
21677;SDS011;11000;50.360;7.582;2023-09-19T07:58:26;5.47;;;2.03;;
21677;SDS011;11000;50.360;7.582;2023-09-19T08:00:47;5.67;;;1.80;;
21677;SDS011;11000;50.360;7.582;2023-09-19T08:03:07;5.07;;;1.80;;
21677;SDS011;11000;50.360;7.582;2023-09-19T08:05:29;6.17;;;1.80;;
21677;SDS011;11000;50.360;7.582;2023-09-19T08:07:49;6.70;;;1.63;;
21677;SDS011;11000;50.360;7.582;2023-09-19T08:10:10;8.27;;;1.67;;
21677;SDS011;11000;50.360;7.582;2023-09-19T08:12:35;8.03;;;2.10;;
21677;SDS011;11000;50.360;7.582;2023-09-19T08:14:56;8.43;;;2.00;;
21677;SDS011;11000;50.360;7.582;2023-09-19T08:17:16;5.17;;;1.70;;
21677;SDS011;11000;50.360;7.582;2023-09-19T08:19:37;7.63;;;2.10;;
21677;SDS011;11000;50.360;7.582;2023-09-19T08:22:00;6.83;;;2.57;;
21677;SDS011;11000;50.360;7.582;2023-09-19T08:24:21;8.40;;;2.03;;
21677;SDS011;11000;50.360;7.582;2023-09-19T08:26:41;9.43;;;2.53;;
21677;SDS011;11000;50.360;7.582;2023-09-19T08:29:02;8.07;;;2.00;;
21677;SDS011;11000;50.360;7.582;2023-09-19T08:31:24;6.53;;;1.60;;
21677;SDS011;11000;50.360;7.582;2023-09-19T08:33:46;11.53;;;2.23;;
21677;SDS011;11000;50.360;7.582;2023-09-19T08:36:09;10.67;;;2.20;;
21677;SDS011;11000;50.360;7.582;2023-09-19T08:38:33;8.80;;;2.13;;
21677;SDS011;11000;50.360;7.582;2023-09-19T08:41:07;7.57;;;2.07;;
21677;SDS011;11000;50.360;7.582;2023-09-19T08:43:28;7.53;;;2.10;;
21677;SDS011;11000;50.360;7.582;2023-09-19T08:45:49;4.20;;;1.93;;
21677;SDS011;11000;50.360;7.582;2023-09-19T08:48:16;7.33;;;1.90;;
21677;SDS011;11000;50.360;7.582;2023-09-19T08:50:49;8.50;;;2.40;;
21677;SDS011;11000;50.360;7.582;2023-09-19T08:53:28;6.37;;;1.83;;
21677;SDS011;11000;50.360;7.582;2023-09-19T08:56:10;5.60;;;2.13;;
21677;SDS011;11000;50.360;7.582;2023-09-19T08:58:34;6.97;;;2.07;;
21677;SDS011;11000;50.360;7.582;2023-09-19T09:01:06;11.10;;;2.53;;
21677;SDS011;11000;50.360;7.582;2023-09-19T09:03:30;5.20;;;1.80;;
21677;SDS011;11000;50.360;7.582;2023-09-19T09:05:53;5.90;;;1.80;;
21677;SDS011;11000;50.360;7.582;2023-09-19T09:08:15;5.70;;;2.17;;
21677;SDS011;11000;50.360;7.582;2023-09-19T09:10:37;8.40;;;2.00;;
21677;SDS011;11000;50.360;7.582;2023-09-19T09:12:58;11.33;;;2.37;;
21677;SDS011;11000;50.360;7.582;2023-09-19T09:15:19;8.87;;;2.10;;
21677;SDS011;11000;50.360;7.582;2023-09-19T09:17:41;9.67;;;2.47;;
21677;SDS011;11000;50.360;7.582;2023-09-19T09:20:03;5.47;;;1.90;;
21677;SDS011;11000;50.360;7.582;2023-09-19T09:22:28;6.80;;;2.27;;
21677;SDS011;11000;50.360;7.582;2023-09-19T09:24:52;7.57;;;2.43;;
21677;SDS011;11000;50.360;7.582;2023-09-19T09:27:21;6.77;;;2.53;;
21677;SDS011;11000;50.360;7.582;2023-09-19T09:29:44;7.47;;;2.40;;
21677;SDS011;11000;50.360;7.582;2023-09-19T09:32:24;7.13;;;2.17;;
21677;SDS011;11000;50.360;7.582;2023-09-19T09:34:52;7.07;;;2.10;;
21677;SDS011;11000;50.360;7.582;2023-09-19T09:37:14;4.83;;;1.97;;
21677;SDS011;11000;50.360;7.582;2023-09-19T09:39:37;8.80;;;2.10;;
21677;SDS011;11000;50.360;7.582;2023-09-19T09:41:57;9.30;;;2.27;;
21677;SDS011;11000;50.360;7.582;2023-09-19T09:44:19;9.63;;;2.20;;
21677;SDS011;11000;50.360;7.582;2023-09-19T09:46:42;9.53;;;2.23;;
21677;SDS011;11000;50.360;7.582;2023-09-19T09:49:10;14.27;;;2.50;;
21677;SDS011;11000;50.360;7.582;2023-09-19T09:51:49;6.73;;;1.90;;
21677;SDS011;11000;50.360;7.582;2023-09-19T09:54:19;4.27;;;2.00;;
21677;SDS011;11000;50.360;7.582;2023-09-19T09:56:59;7.90;;;2.20;;
21677;SDS011;11000;50.360;7.582;2023-09-19T09:59:21;10.47;;;2.60;;
21677;SDS011;11000;50.360;7.582;2023-09-19T10:01:47;6.33;;;2.10;;
21677;SDS011;11000;50.360;7.582;2023-09-19T10:04:15;8.47;;;2.33;;
21677;SDS011;11000;50.360;7.582;2023-09-19T10:06:56;5.43;;;2.07;;
21677;SDS011;11000;50.360;7.582;2023-09-19T10:09:17;5.97;;;2.20;;
21677;SDS011;11000;50.360;7.582;2023-09-19T10:11:41;8.60;;;2.33;;
21677;SDS011;11000;50.360;7.582;2023-09-19T10:14:03;10.37;;;2.57;;
21677;SDS011;11000;50.360;7.582;2023-09-19T10:16:26;5.97;;;2.10;;
21677;SDS011;11000;50.360;7.582;2023-09-19T10:18:52;5.90;;;2.37;;
21677;SDS011;11000;50.360;7.582;2023-09-19T10:21:18;7.53;;;1.97;;
21677;SDS011;11000;50.360;7.582;2023-09-19T10:23:42;6.13;;;2.10;;
21677;SDS011;11000;50.360;7.582;2023-09-19T10:26:03;5.77;;;1.80;;
21677;SDS011;11000;50.360;7.582;2023-09-19T10:28:26;4.13;;;1.83;;
21677;SDS011;11000;50.360;7.582;2023-09-19T10:30:51;7.17;;;2.07;;
21677;SDS011;11000;50.360;7.582;2023-09-19T10:33:13;6.33;;;2.20;;
21677;SDS011;11000;50.360;7.582;2023-09-19T10:35:36;7.73;;;2.17;;
21677;SDS011;11000;50.360;7.582;2023-09-19T10:38:00;10.63;;;2.70;;
21677;SDS011;11000;50.360;7.582;2023-09-19T10:40:22;9.27;;;2.23;;
21677;SDS011;11000;50.360;7.582;2023-09-19T10:42:50;5.33;;;1.90;;
21677;SDS011;11000;50.360;7.582;2023-09-19T10:45:11;3.43;;;2.00;;
21677;SDS011;11000;50.360;7.582;2023-09-19T10:47:35;6.77;;;2.50;;
21677;SDS011;11000;50.360;7.582;2023-09-19T10:49:57;5.37;;;2.20;;
21677;SDS011;11000;50.360;7.582;2023-09-19T10:52:20;6.73;;;2.53;;
21677;SDS011;11000;50.360;7.582;2023-09-19T10:54:47;7.37;;;2.00;;
21677;SDS011;11000;50.360;7.582;2023-09-19T10:57:20;7.17;;;2.17;;
21677;SDS011;11000;50.360;7.582;2023-09-19T11:00:00;6.87;;;2.13;;
21677;SDS011;11000;50.360;7.582;2023-09-19T11:02:27;10.20;;;2.13;;
21677;SDS011;11000;50.360;7.582;2023-09-19T11:04:47;6.00;;;2.07;;
21677;SDS011;11000;50.360;7.582;2023-09-19T11:07:10;7.37;;;2.10;;
21677;SDS011;11000;50.360;7.582;2023-09-19T11:14:51;5.80;;;1.77;;
21677;SDS011;11000;50.360;7.582;2023-09-19T11:17:29;9.47;;;2.33;;
21677;SDS011;11000;50.360;7.582;2023-09-19T11:30:26;5.37;;;1.80;;
21677;SDS011;11000;50.360;7.582;2023-09-19T11:36:02;4.23;;;1.67;;
21677;SDS011;11000;50.360;7.582;2023-09-19T11:38:56;4.83;;;1.90;;
21677;SDS011;11000;50.360;7.582;2023-09-19T11:46:31;3.00;;;1.60;;
21677;SDS011;11000;50.360;7.582;2023-09-19T11:48:53;5.00;;;1.50;;
21677;SDS011;11000;50.360;7.582;2023-09-19T11:51:14;4.17;;;1.90;;
21677;SDS011;11000;50.360;7.582;2023-09-19T11:53:39;4.90;;;1.90;;
21677;SDS011;11000;50.360;7.582;2023-09-19T11:56:00;6.77;;;2.00;;
21677;SDS011;11000;50.360;7.582;2023-09-19T11:58:21;5.67;;;1.87;;
21677;SDS011;11000;50.360;7.582;2023-09-19T12:00:44;4.20;;;1.43;;
21677;SDS011;11000;50.360;7.582;2023-09-19T12:03:08;4.87;;;1.63;;
21677;SDS011;11000;50.360;7.582;2023-09-19T12:05:30;5.63;;;1.70;;
21677;SDS011;11000;50.360;7.582;2023-09-19T12:07:53;6.93;;;1.67;;
21677;SDS011;11000;50.360;7.582;2023-09-19T12:10:14;8.00;;;1.60;;
21677;SDS011;11000;50.360;7.582;2023-09-19T12:12:37;6.00;;;1.97;;
21677;SDS011;11000;50.360;7.582;2023-09-19T12:14:57;5.83;;;1.50;;
21677;SDS011;11000;50.360;7.582;2023-09-19T12:17:18;5.70;;;2.00;;
21677;SDS011;11000;50.360;7.582;2023-09-19T12:19:52;4.73;;;1.70;;
21677;SDS011;11000;50.360;7.582;2023-09-19T12:22:13;5.20;;;1.70;;
21677;SDS011;11000;50.360;7.582;2023-09-19T12:24:34;5.13;;;1.60;;
21677;SDS011;11000;50.360;7.582;2023-09-19T12:27:02;5.00;;;1.50;;
21677;SDS011;11000;50.360;7.582;2023-09-19T12:29:26;5.87;;;1.67;;
21677;SDS011;11000;50.360;7.582;2023-09-19T12:31:48;6.60;;;1.27;;
21677;SDS011;11000;50.360;7.582;2023-09-19T12:34:20;5.03;;;1.40;;
21677;SDS011;11000;50.360;7.582;2023-09-19T12:36:42;3.07;;;1.37;;
21677;SDS011;11000;50.360;7.582;2023-09-19T12:39:03;8.03;;;2.17;;
21677;SDS011;11000;50.360;7.582;2023-09-19T12:41:29;4.57;;;1.57;;
21677;SDS011;11000;50.360;7.582;2023-09-19T12:43:50;3.80;;;1.67;;
21677;SDS011;11000;50.360;7.582;2023-09-19T12:46:13;4.97;;;1.77;;
21677;SDS011;11000;50.360;7.582;2023-09-19T12:48:35;3.50;;;1.67;;
21677;SDS011;11000;50.360;7.582;2023-09-19T12:51:04;4.77;;;1.97;;
21677;SDS011;11000;50.360;7.582;2023-09-19T12:53:32;4.27;;;1.60;;
21677;SDS011;11000;50.360;7.582;2023-09-19T12:56:02;3.70;;;1.30;;
21677;SDS011;11000;50.360;7.582;2023-09-19T12:58:25;5.63;;;1.73;;
21677;SDS011;11000;50.360;7.582;2023-09-19T13:00:46;3.90;;;1.80;;
21677;SDS011;11000;50.360;7.582;2023-09-19T13:08:19;3.23;;;1.47;;
21677;SDS011;11000;50.360;7.582;2023-09-19T13:13:24;4.93;;;1.40;;
21677;SDS011;11000;50.360;7.582;2023-09-19T13:15:53;5.50;;;1.80;;
21677;SDS011;11000;50.360;7.582;2023-09-19T13:18:17;2.97;;;1.50;;
21677;SDS011;11000;50.360;7.582;2023-09-19T13:20:40;3.13;;;1.30;;
21677;SDS011;11000;50.360;7.582;2023-09-19T13:23:25;3.30;;;1.50;;
21677;SDS011;11000;50.360;7.582;2023-09-19T13:25:46;8.27;;;1.50;;
21677;SDS011;11000;50.360;7.582;2023-09-19T13:28:07;4.23;;;1.87;;
21677;SDS011;11000;50.360;7.582;2023-09-19T13:30:28;4.60;;;1.40;;
21677;SDS011;11000;50.360;7.582;2023-09-19T13:32:52;5.30;;;1.60;;
21677;SDS011;11000;50.360;7.582;2023-09-19T13:35:25;4.37;;;1.53;;
21677;SDS011;11000;50.360;7.582;2023-09-19T13:37:46;3.97;;;1.30;;
21677;SDS011;11000;50.360;7.582;2023-09-19T13:42:30;3.17;;;1.40;;
21677;SDS011;11000;50.360;7.582;2023-09-19T13:44:51;5.10;;;1.40;;
21677;SDS011;11000;50.360;7.582;2023-09-19T13:47:13;5.07;;;1.40;;
21677;SDS011;11000;50.360;7.582;2023-09-19T13:49:35;4.40;;;1.60;;
21677;SDS011;11000;50.360;7.582;2023-09-19T13:51:56;3.03;;;1.57;;
21677;SDS011;11000;50.360;7.582;2023-09-19T13:54:16;3.70;;;1.60;;
21677;SDS011;11000;50.360;7.582;2023-09-19T13:56:37;3.30;;;1.20;;
21677;SDS011;11000;50.360;7.582;2023-09-19T13:58:58;3.53;;;1.70;;
21677;SDS011;11000;50.360;7.582;2023-09-19T14:01:19;3.03;;;1.27;;
21677;SDS011;11000;50.360;7.582;2023-09-19T14:03:40;4.73;;;1.40;;
21677;SDS011;11000;50.360;7.582;2023-09-19T14:06:03;4.07;;;1.40;;
21677;SDS011;11000;50.360;7.582;2023-09-19T14:08:24;2.40;;;1.30;;
21677;SDS011;11000;50.360;7.582;2023-09-19T14:10:45;3.00;;;1.47;;
21677;SDS011;11000;50.360;7.582;2023-09-19T14:13:05;3.47;;;1.07;;
21677;SDS011;11000;50.360;7.582;2023-09-19T14:15:26;4.30;;;1.00;;
21677;SDS011;11000;50.360;7.582;2023-09-19T14:17:50;4.50;;;1.40;;
21677;SDS011;11000;50.360;7.582;2023-09-19T14:20:11;3.23;;;1.50;;
21677;SDS011;11000;50.360;7.582;2023-09-19T14:22:32;5.00;;;1.47;;
21677;SDS011;11000;50.360;7.582;2023-09-19T14:24:53;3.63;;;1.40;;
21677;SDS011;11000;50.360;7.582;2023-09-19T14:27:14;7.40;;;1.90;;
21677;SDS011;11000;50.360;7.582;2023-09-19T14:29:34;3.73;;;1.23;;
21677;SDS011;11000;50.360;7.582;2023-09-19T14:31:55;3.17;;;1.20;;
21677;SDS011;11000;50.360;7.582;2023-09-19T14:34:17;3.73;;;1.20;;
21677;SDS011;11000;50.360;7.582;2023-09-19T14:36:39;4.90;;;1.37;;
21677;SDS011;11000;50.360;7.582;2023-09-19T14:39:00;3.10;;;1.20;;
21677;SDS011;11000;50.360;7.582;2023-09-19T14:41:20;3.20;;;1.30;;
21677;SDS011;11000;50.360;7.582;2023-09-19T14:43:41;5.10;;;1.40;;
21677;SDS011;11000;50.360;7.582;2023-09-19T14:46:02;4.10;;;1.20;;
21677;SDS011;11000;50.360;7.582;2023-09-19T14:48:24;5.00;;;1.70;;
21677;SDS011;11000;50.360;7.582;2023-09-19T14:50:45;2.73;;;1.30;;
21677;SDS011;11000;50.360;7.582;2023-09-19T14:53:08;3.00;;;1.30;;
21677;SDS011;11000;50.360;7.582;2023-09-19T14:55:30;4.80;;;1.47;;
21677;SDS011;11000;50.360;7.582;2023-09-19T14:57:54;3.30;;;1.33;;
21677;SDS011;11000;50.360;7.582;2023-09-19T15:00:18;3.97;;;1.50;;
21677;SDS011;11000;50.360;7.582;2023-09-19T15:02:41;3.53;;;1.40;;
21677;SDS011;11000;50.360;7.582;2023-09-19T15:05:01;4.30;;;1.73;;